Time;durP1;ratioP1;P1;durP2;ratioP2;P2;SDS_P1;SDS_P2;PMS_P1;PMS_P2;Temp;Humidity;BMP_temperature;BMP_pressure;BME280_temperature;BME280_humidity;BME280_pressure;Samples;Min_cycle;Max_cycle;Signal;HPM_P1;HPM_P2
2023/06/17 00:01:59;;;;;;;9.07;6.70;;;;;;;19.66;51.62;101844.53;5048575;28;20090;-49
2023/06/17 00:04:24;;;;;;;11.27;7.50;;;;;;;19.62;51.82;101841.94;5048504;28;20036;-46
2023/06/17 00:06:50;;;;;;;12.40;7.75;;;;;;;19.58;52.19;101842.84;5048603;28;20029;-47
2023/06/17 00:09:15;;;;;;;11.32;7.60;;;;;;;19.56;52.17;101834.03;5048564;28;20116;-52
2023/06/17 00:11:40;;;;;;;12.90;7.82;;;;;;;19.52;52.30;101837.63;5049651;28;20033;-46
2023/06/17 00:14:07;;;;;;;11.15;7.68;;;;;;;19.49;52.62;101824.41;5052539;28;20457;-46
2023/06/17 00:16:36;;;;;;;11.85;7.72;;;;;;;19.48;52.78;101826.16;5051684;28;20036;-47
2023/06/17 00:19:05;;;;;;;12.35;8.02;;;;;;;19.49;53.00;101829.69;5052065;28;20045;-50
2023/06/17 00:21:31;;;;;;;12.50;8.23;;;;;;;19.52;53.02;101824.38;5052979;28;20033;-49
2023/06/17 00:23:57;;;;;;;12.90;8.48;;;;;;;19.53;53.03;101819.06;5052507;28;20464;-45
2023/06/17 00:26:23;;;;;;;12.13;9.27;;;;;;;19.48;52.88;101820.88;5052390;28;20099;-50
2023/06/17 00:28:48;;;;;;;13.52;9.32;;;;;;;19.42;52.95;101819.13;5034570;28;20399;-45
2023/06/17 00:31:14;;;;;;;11.75;8.73;;;;;;;19.39;53.10;101819.13;5052262;28;20486;-46
2023/06/17 00:33:39;;;;;;;14.95;8.93;;;;;;;19.37;52.82;101815.66;5052550;28;20040;-48
2023/06/17 00:36:05;;;;;;;13.15;9.75;;;;;;;19.37;52.74;101813.00;5051881;28;20179;-50
2023/06/17 00:38:30;;;;;;;11.88;9.05;;;;;;;19.32;52.87;101812.16;5035545;28;20040;-45
2023/06/17 00:40:56;;;;;;;15.73;9.75;;;;;;;19.27;53.11;101807.81;5053056;28;20036;-45
2023/06/17 00:43:21;;;;;;;13.40;9.07;;;;;;;19.23;53.11;101809.56;5052955;28;20407;-50
2023/06/17 00:45:46;;;;;;;13.30;9.18;;;;;;;19.20;53.42;101801.69;5052749;28;20241;-46
2023/06/17 00:48:13;;;;;;;14.38;9.80;;;;;;;19.14;53.62;101803.50;5052235;28;20033;-44
2023/06/17 00:50:39;;;;;;;12.25;8.93;;;;;;;19.09;53.31;101798.22;5052197;28;20032;-46
2023/06/17 00:53:06;;;;;;;16.63;9.93;;;;;;;19.09;53.17;101805.28;5051756;28;20132;-49
2023/06/17 00:55:32;;;;;;;14.80;9.38;;;;;;;19.05;53.12;101817.63;5051623;28;20036;-46
2023/06/17 00:57:59;;;;;;;13.77;10.38;;;;;;;19.06;53.50;101816.75;5052075;28;20029;-46
2023/06/17 01:00:24;;;;;;;13.88;9.98;;;;;;;19.03;53.63;101806.19;5052263;28;20039;-46
2023/06/17 01:02:50;;;;;;;18.48;10.13;;;;;;;18.99;53.83;101810.63;5052259;28;20116;-50
2023/06/17 01:05:17;;;;;;;13.95;9.40;;;;;;;18.97;54.16;101804.47;5050929;28;20021;-45
2023/06/17 01:07:57;;;;;;;13.43;10.00;;;;;;;18.99;54.08;101800.06;5052369;28;20033;-48
2023/06/17 01:10:56;;;;;;;13.98;10.45;;;;;;;18.94;54.05;101807.13;5051868;28;20403;-48
2023/06/17 01:13:22;;;;;;;13.25;10.00;;;;;;;18.89;54.01;101805.41;5052489;28;20025;-46
2023/06/17 01:15:49;;;;;;;13.65;10.05;;;;;;;18.87;54.04;101812.47;5033477;28;20078;-48
2023/06/17 01:18:17;;;;;;;15.00;10.80;;;;;;;18.87;54.17;101805.41;5052940;28;20029;-49
2023/06/17 01:20:44;;;;;;;14.00;10.48;;;;;;;18.85;54.20;101806.28;5052393;28;20068;-48
2023/06/17 01:23:11;;;;;;;13.75;10.57;;;;;;;18.82;54.42;101804.56;5051256;28;20496;-47
2023/06/17 01:25:37;;;;;;;17.83;11.30;;;;;;;18.80;54.62;101808.97;5052349;28;20060;-46
2023/06/17 01:28:16;;;;;;;16.15;10.82;;;;;;;18.76;55.25;101801.97;5052737;28;20112;-44
2023/06/17 01:30:43;;;;;;;14.93;10.57;;;;;;;18.73;55.36;101803.72;5052151;28;20040;-50
2023/06/17 01:33:11;;;;;;;15.15;11.57;;;;;;;18.71;55.45;101806.41;5051452;28;20037;-47
2023/06/17 01:35:40;;;;;;;17.30;11.30;;;;;;;18.69;55.95;101802.88;5051549;28;20037;-43
2023/06/17 01:38:15;;;;;;;14.07;10.70;;;;;;;18.69;55.89;101815.19;5051244;28;20083;-45
2023/06/17 01:40:42;;;;;;;16.15;11.77;;;;;;;18.68;56.05;101806.41;5051352;28;20025;-47
2023/06/17 01:43:09;;;;;;;16.55;11.10;;;;;;;18.67;56.05;101809.91;5050578;28;20033;-49
2023/06/17 01:45:35;;;;;;;14.57;11.00;;;;;;;18.65;56.15;101806.44;5050829;28;20037;-45
2023/06/17 01:48:01;;;;;;;15.25;11.88;;;;;;;18.61;56.42;101808.19;5050996;28;20090;-45
2023/06/17 01:50:26;;;;;;;16.25;11.98;;;;;;;18.58;56.72;101813.50;5051454;28;20036;-49
2023/06/17 01:52:52;;;;;;;15.25;11.65;;;;;;;18.56;56.55;101811.75;5050867;28;20120;-47
2023/06/17 01:55:17;;;;;;;16.92;11.63;;;;;;;18.51;56.13;101822.28;5050775;28;20029;-46
2023/06/17 01:57:43;;;;;;;16.77;12.07;;;;;;;18.46;56.03;101812.63;5051128;28;20063;-45
2023/06/17 02:00:11;;;;;;;15.65;11.52;;;;;;;18.43;55.81;101807.34;5049240;28;20415;-46
2023/06/17 02:02:37;;;;;;;17.73;11.82;;;;;;;18.42;56.07;101806.47;5048698;28;20560;-47
2023/06/17 02:05:02;;;;;;;16.63;12.32;;;;;;;18.40;56.09;101805.63;5049588;28;20026;-48
2023/06/17 02:07:28;;;;;;;17.98;12.32;;;;;;;18.39;56.42;101806.50;5032943;28;20520;-49
2023/06/17 02:09:53;;;;;;;16.83;12.65;;;;;;;18.37;56.86;101796.81;5047669;28;20067;-47
2023/06/17 02:12:19;;;;;;;17.35;12.43;;;;;;;18.33;56.79;101797.72;5050699;28;20045;-47
2023/06/17 02:14:44;;;;;;;17.80;12.35;;;;;;;18.33;56.35;101792.44;5050929;28;20111;-45
2023/06/17 02:17:10;;;;;;;16.92;12.32;;;;;;;18.29;56.77;101798.63;5049996;28;20576;-50
2023/06/17 02:19:37;;;;;;;16.58;12.98;;;;;;;18.22;56.95;101787.22;5050731;28;20044;-45
2023/06/17 02:22:03;;;;;;;16.30;12.05;;;;;;;18.21;57.33;101785.44;5049955;28;20166;-46
2023/06/17 02:24:28;;;;;;;18.38;12.40;;;;;;;18.21;57.62;101788.97;5050650;28;20106;-47
2023/06/17 02:26:54;;;;;;;17.13;12.80;;;;;;;18.18;57.93;101778.41;5048664;28;20120;-51
2023/06/17 02:29:19;;;;;;;17.95;12.75;;;;;;;18.14;58.17;101781.94;5050348;28;20106;-46
2023/06/17 02:31:44;;;;;;;16.88;12.63;;;;;;;18.11;57.83;101781.09;5049566;28;20115;-50
2023/06/17 02:34:10;;;;;;;18.13;13.32;;;;;;;18.07;57.50;101774.06;5048400;28;20041;-46
2023/06/17 02:36:39;;;;;;;20.95;13.38;;;;;;;18.04;57.56;101774.97;5050016;28;20116;-45
2023/06/17 02:39:05;;;;;;;18.00;12.88;;;;;;;18.02;57.88;101773.19;5049705;28;20057;-43
2023/06/17 02:41:31;;;;;;;17.48;12.70;;;;;;;18.03;57.88;101777.59;5050336;28;20032;-48
2023/06/17 02:43:56;;;;;;;17.52;13.10;;;;;;;17.98;58.02;101777.63;5048824;28;20388;-45
2023/06/17 02:46:24;;;;;;;16.88;12.75;;;;;;;17.98;57.92;101774.09;5050056;28;20458;-44
2023/06/17 02:48:49;;;;;;;19.25;13.18;;;;;;;17.97;58.21;101765.31;5050080;28;20074;-45
2023/06/17 02:51:15;;;;;;;20.85;12.98;;;;;;;17.99;58.33;101774.06;5049716;28;20438;-50
2023/06/17 02:53:41;;;;;;;17.27;13.07;;;;;;;17.99;58.65;101767.94;5050017;28;20105;-47
2023/06/17 02:56:06;;;;;;;18.65;13.80;;;;;;;17.96;58.52;101774.09;5049245;28;20041;-50
2023/06/17 02:58:32;;;;;;;19.10;13.43;;;;;;;17.92;58.24;101769.72;5050147;28;20432;-49
2023/06/17 03:00:57;;;;;;;18.35;13.35;;;;;;;17.91;58.44;101764.44;5051090;28;20555;-45
2023/06/17 03:03:33;;;;;;;20.15;13.82;;;;;;;17.88;58.26;101764.44;5051485;28;20087;-45
2023/06/17 03:06:01;;;;;;;19.00;14.23;;;;;;;17.82;58.30;101766.19;5050636;28;20107;-47
2023/06/17 03:08:28;;;;;;;18.60;13.93;;;;;;;17.82;58.17;101774.13;5034262;28;20060;-45
2023/06/17 03:10:53;;;;;;;20.10;13.85;;;;;;;17.80;58.20;101769.75;5050404;28;20544;-45
2023/06/17 03:13:18;;;;;;;16.83;12.68;;;;;;;17.82;58.08;101765.31;5051815;28;20128;-47
2023/06/17 03:15:44;;;;;;;17.08;13.32;;;;;;;17.87;58.05;101767.97;5050292;28;20599;-46
2023/06/17 03:18:09;;;;;;;19.33;13.95;;;;;;;17.89;58.29;101756.53;5049396;28;20078;-48
2023/06/17 03:20:35;;;;;;;20.33;14.20;;;;;;;17.88;59.03;101765.31;5050034;28;20155;-45
2023/06/17 03:23:02;;;;;;;17.50;13.32;;;;;;;17.87;59.28;101757.41;5049091;28;20044;-44
2023/06/17 03:25:27;;;;;;;18.73;13.48;;;;;;;17.87;59.57;101760.06;5050571;28;20094;-45
2023/06/17 03:27:53;;;;;;;19.63;13.93;;;;;;;17.86;60.06;101761.81;5051255;28;20430;-49
2023/06/17 03:30:18;;;;;;;19.27;13.65;;;;;;;17.86;60.55;101760.94;5050665;28;20063;-44
2023/06/17 03:32:44;;;;;;;17.15;14.00;;;;;;;17.88;60.14;101756.50;5050584;28;20103;-47
2023/06/17 03:35:10;;;;;;;23.10;14.32;;;;;;;17.89;60.74;101758.28;5050105;28;20037;-46
2023/06/17 03:37:35;;;;;;;18.55;13.90;;;;;;;17.93;60.70;101762.69;5051605;28;20464;-44
2023/06/17 03:40:00;;;;;;;20.38;14.70;;;;;;;17.92;60.83;101766.19;5050604;28;20182;-45
2023/06/17 03:42:26;;;;;;;22.25;15.05;;;;;;;17.93;61.41;101765.31;5050550;28;20029;-46
2023/06/17 03:44:51;;;;;;;18.80;14.20;;;;;;;17.97;61.41;101761.78;5049538;28;20119;-44
2023/06/17 03:47:16;;;;;;;22.42;15.65;;;;;;;17.99;61.54;101766.16;5049127;28;20063;-48
2023/06/17 03:49:44;;;;;;;22.67;16.40;;;;;;;18.09;61.37;101767.03;5049648;28;20025;-45
2023/06/17 03:52:09;;;;;;;24.08;16.73;;;;;;;18.12;61.54;101767.00;5050145;28;20120;-45
2023/06/17 03:54:34;;;;;;;23.10;16.60;;;;;;;18.13;61.72;101761.72;5049565;28;20563;-47
2023/06/17 03:56:59;;;;;;;20.20;15.55;;;;;;;18.19;61.49;101763.44;5048717;28;20533;-47
2023/06/17 03:59:25;;;;;;;21.63;16.20;;;;;;;18.21;61.65;101761.69;5049761;28;20041;-47
2023/06/17 04:01:50;;;;;;;22.33;16.65;;;;;;;18.23;61.41;101750.25;5050513;28;20033;-51
2023/06/17 04:04:16;;;;;;;23.92;16.67;;;;;;;18.29;61.73;101756.41;5049992;28;20053;-48
2023/06/17 04:06:41;;;;;;;20.92;16.27;;;;;;;18.32;61.76;101761.66;5032451;28;20044;-44
2023/06/17 04:09:06;;;;;;;21.40;16.35;;;;;;;18.34;61.45;101757.25;5049992;28;20462;-45
2023/06/17 04:11:32;;;;;;;23.33;16.88;;;;;;;18.39;61.52;101756.34;5032853;28;20033;-45
2023/06/17 04:13:59;;;;;;;23.60;16.83;;;;;;;18.43;61.42;101763.34;5032510;23;20034;-80
2023/06/17 04:16:24;;;;;;;26.00;17.55;;;;;;;18.48;61.60;101764.19;4993738;28;20540;-80
2023/06/17 04:18:50;;;;;;;23.67;16.83;;;;;;;18.54;61.22;101772.09;5011291;28;20033;-79
2023/06/17 04:21:16;;;;;;;25.23;17.25;;;;;;;18.64;61.01;101765.03;5025948;28;20033;-81
2023/06/17 04:23:44;;;;;;;23.80;17.48;;;;;;;18.70;60.81;101765.00;5031461;28;20136;-80
2023/06/17 04:28:43;;;;;;;25.33;17.90;;;;;;;18.81;61.26;101764.94;5025616;28;20072;-44
2023/06/17 04:31:10;;;;;;;24.35;17.02;;;;;;;18.86;61.56;101766.66;5028518;28;20435;-45
2023/06/17 04:33:37;;;;;;;26.92;16.30;;;;;;;18.94;61.29;101763.97;5029051;28;20427;-46
2023/06/17 04:36:07;;;;;;;20.92;16.60;;;;;;;19.05;61.34;101767.41;5027943;28;20119;-43
2023/06/17 04:38:35;;;;;;;21.60;17.50;;;;;;;19.14;61.16;101764.72;5028922;28;20647;-44
2023/06/17 04:41:00;;;;;;;19.58;15.68;;;;;;;19.26;60.85;101769.91;5028982;28;20357;-46
2023/06/17 04:43:28;;;;;;;21.20;16.77;;;;;;;19.48;60.24;101765.34;5029099;28;20029;-45
2023/06/17 04:45:53;;;;;;;20.95;16.50;;;;;;;19.60;60.45;101774.91;5028752;28;20034;-46
2023/06/17 04:48:20;;;;;;;23.17;16.58;;;;;;;19.73;60.76;101764.22;5030478;28;20040;-46
2023/06/17 04:50:45;;;;;;;20.25;16.15;;;;;;;19.69;61.37;101770.44;5029070;28;20057;-45
2023/06/17 04:53:11;;;;;;;21.40;17.27;;;;;;;19.88;61.35;101776.41;5028521;28;20068;-45
2023/06/17 04:55:36;;;;;;;20.33;16.00;;;;;;;20.04;61.14;101766.53;5028548;28;20033;-43
2023/06/17 04:58:03;;;;;;;23.98;17.83;;;;;;;20.15;60.74;101768.16;5030607;28;20126;-48
2023/06/17 05:00:29;;;;;;;21.75;16.48;;;;;;;20.30;60.62;101763.56;5032370;28;20025;-48
2023/06/17 05:02:54;;;;;;;17.30;14.60;;;;;;;20.54;59.86;101757.97;5031841;28;20086;-45
2023/06/17 05:05:20;;;;;;;18.13;15.05;;;;;;;20.73;59.50;101761.25;5031598;28;20029;-48
2023/06/17 05:07:45;;;;;;;17.58;14.48;;;;;;;20.81;59.47;101757.56;5032226;28;20107;-48
2023/06/17 05:10:11;;;;;;;22.15;15.93;;;;;;;20.80;59.85;101762.94;5031574;28;20049;-44
2023/06/17 05:12:36;;;;;;;16.73;13.75;;;;;;;21.06;60.45;101758.97;5032087;28;20030;-44
2023/06/17 05:15:02;;;;;;;18.38;13.63;;;;;;;21.89;59.69;101766.41;5031367;28;20040;-48
2023/06/17 05:17:27;;;;;;;19.08;15.55;;;;;;;22.88;54.25;101761.66;5030683;28;20028;-46
2023/06/17 05:19:53;;;;;;;18.02;14.40;;;;;;;24.35;49.76;101754.25;5031505;28;20395;-43
2023/06/17 05:22:18;;;;;;;18.38;15.02;;;;;;;24.52;48.48;101760.81;5031815;28;20519;-44
2023/06/17 05:24:43;;;;;;;19.00;14.50;;;;;;;24.99;46.72;101761.19;5031853;28;20029;-45
2023/06/17 05:27:09;;;;;;;18.17;15.15;;;;;;;24.35;48.45;101754.25;5030612;28;20044;-47
2023/06/17 05:29:34;;;;;;;16.95;14.07;;;;;;;25.20;46.81;101751.59;5031499;28;20404;-46
2023/06/17 05:32:00;;;;;;;17.83;13.75;;;;;;;25.88;45.39;101756.38;5031131;28;20488;-47
2023/06/17 05:34:25;;;;;;;17.05;13.55;;;;;;;25.46;45.58;101752.44;5031806;28;20055;-46
2023/06/17 05:36:50;;;;;;;16.40;13.43;;;;;;;25.39;45.71;101753.59;5031127;28;20413;-47
2023/06/17 05:39:16;;;;;;;16.42;12.80;;;;;;;25.75;43.84;101754.13;5031020;28;20033;-48
2023/06/17 05:41:41;;;;;;;19.33;13.35;;;;;;;24.87;45.95;101750.88;5031493;28;20499;-47
2023/06/17 05:44:06;;;;;;;15.45;12.95;;;;;;;25.28;44.36;101750.41;5031042;28;20123;-48
2023/06/17 05:46:32;;;;;;;14.43;12.38;;;;;;;25.70;43.29;101748.09;5030926;28;20033;-41
2023/06/17 05:48:57;;;;;;;15.10;13.00;;;;;;;25.08;44.68;101747.53;5031011;28;20072;-48
2023/06/17 05:51:22;;;;;;;18.60;13.32;;;;;;;25.64;43.55;101752.78;5031592;28;20435;-49
2023/06/17 05:53:50;;;;;;;15.38;12.63;;;;;;;26.42;42.21;101745.44;5031296;28;20040;-47
2023/06/17 05:56:16;;;;;;;12.23;10.73;;;;;;;27.81;36.29;101746.84;5030128;28;20033;-47
2023/06/17 05:58:41;;;;;;;11.48;9.43;;;;;;;29.71;32.07;101742.97;5030993;28;20053;-46
2023/06/17 06:01:07;;;;;;;13.20;10.55;;;;;;;28.33;34.41;101750.72;5030721;28;20060;-45
2023/06/17 06:03:32;;;;;;;10.15;8.57;;;;;;;29.61;31.58;101744.41;5031096;28;20036;-48
2023/06/17 06:05:57;;;;;;;11.65;9.15;;;;;;;29.52;31.79;101748.41;5030123;28;20436;-48
2023/06/17 06:08:23;;;;;;;14.38;8.73;;;;;;;29.60;31.61;101751.59;5030701;28;20496;-45
2023/06/17 06:10:48;;;;;;;12.75;8.65;;;;;;;29.67;30.77;101747.63;5030766;28;20025;-49
2023/06/17 06:13:13;;;;;;;13.75;9.30;;;;;;;30.34;30.16;101741.34;5030487;28;20037;-45
2023/06/17 06:15:38;;;;;;;9.98;8.95;;;;;;;29.77;30.24;101746.19;5030374;28;20025;-48
2023/06/17 06:18:05;;;;;;;10.57;8.07;;;;;;;29.83;31.00;101748.56;5030264;28;20562;-46
2023/06/17 06:20:30;;;;;;;14.52;8.90;;;;;;;28.54;32.65;101748.84;5030666;28;20076;-45
2023/06/17 06:22:57;;;;;;;8.65;7.60;;;;;;;29.35;31.04;101741.25;5030209;28;20408;-45
2023/06/17 06:25:22;;;;;;;10.23;7.82;;;;;;;30.04;30.20;101734.97;5030200;28;20129;-46
2023/06/17 06:27:50;;;;;;;14.48;8.77;;;;;;;29.29;30.32;101744.22;5030684;28;20547;-48
2023/06/17 06:30:15;;;;;;;12.98;8.93;;;;;;;28.67;32.78;101741.91;5030136;28;20033;-47
2023/06/17 06:32:41;;;;;;;14.32;8.85;;;;;;;29.27;32.71;101739.88;5030551;28;20671;-46
2023/06/17 06:35:06;;;;;;;9.85;8.60;;;;;;;30.78;30.29;101740.69;5029344;28;20045;-47
2023/06/17 06:37:32;;;;;;;9.40;7.32;;;;;;;31.14;28.78;101741.28;5030504;28;20046;-47
2023/06/17 06:39:57;;;;;;;10.80;7.72;;;;;;;31.98;27.55;101741.59;5029832;28;20030;-48
2023/06/17 06:42:22;;;;;;;11.30;6.38;;;;;;;31.82;26.31;101737.16;5030231;28;20500;-48
2023/06/17 06:44:50;;;;;;;6.65;5.60;;;;;;;31.26;26.85;101743.25;5030238;28;20128;-46
2023/06/17 06:47:16;;;;;;;7.72;5.18;;;;;;;33.19;22.61;101738.22;5029520;28;20040;-46
2023/06/17 06:49:41;;;;;;;8.52;5.43;;;;;;;32.68;23.75;101734.44;5029866;28;20037;-50
2023/06/17 06:52:06;;;;;;;8.93;5.90;;;;;;;31.18;25.85;101742.84;5029657;28;20654;-48
2023/06/17 06:54:32;;;;;;;8.55;5.97;;;;;;;32.48;24.81;101730.31;5030055;28;20132;-45
2023/06/17 06:56:57;;;;;;;6.55;5.85;;;;;;;33.50;23.67;101731.59;5029167;28;20087;-44
2023/06/17 06:59:23;;;;;;;10.77;6.80;;;;;;;31.25;27.16;101728.03;5029799;28;20087;-46
2023/06/17 07:01:48;;;;;;;7.57;5.63;;;;;;;32.51;24.47;101720.16;5030085;28;20108;-46
2023/06/17 07:04:14;;;;;;;6.93;5.60;;;;;;;33.66;23.07;101729.56;5029511;28;20033;-48
2023/06/17 07:06:40;;;;;;;7.07;4.60;;;;;;;33.45;23.14;101718.41;5029538;28;20053;-48
2023/06/17 07:09:06;;;;;;;5.70;4.68;;;;;;;33.24;22.90;101726.13;5029146;28;20519;-45
2023/06/17 07:11:31;;;;;;;9.35;5.93;;;;;;;32.06;23.65;101732.06;5029328;28;20037;-44
2023/06/17 07:13:56;;;;;;;8.50;5.55;;;;;;;31.02;25.48;101732.06;5029458;28;20222;-48
2023/06/17 07:16:22;;;;;;;6.55;5.68;;;;;;;30.11;27.12;101729.16;5028525;28;20395;-44
2023/06/17 07:18:47;;;;;;;7.28;5.75;;;;;;;30.65;27.02;101732.44;5029861;28;20034;-45
2023/06/17 07:21:12;;;;;;;8.85;5.50;;;;;;;31.34;27.00;101740.97;5028710;28;20045;-43
2023/06/17 07:23:38;;;;;;;8.23;6.10;;;;;;;32.56;24.74;101734.25;5029682;28;20041;-46
2023/06/17 07:26:03;;;;;;;12.52;6.38;;;;;;;30.82;26.40;101740.44;5028773;28;20021;-47
2023/06/17 07:28:31;;;;;;;9.18;6.07;;;;;;;30.43;27.56;101735.47;5029483;28;20496;-42
2023/06/17 07:30:57;;;;;;;8.05;6.05;;;;;;;31.11;26.05;101732.53;5029173;28;20484;-45
2023/06/17 07:33:22;;;;;;;8.68;6.35;;;;;;;30.42;26.97;101732.84;5029556;28;20087;-46
2023/06/17 07:35:48;;;;;;;9.02;6.10;;;;;;;31.73;24.72;101728.75;5029091;28;20255;-48
2023/06/17 07:38:13;;;;;;;8.45;5.88;;;;;;;31.87;23.75;101728.78;5029272;28;20124;-45
2023/06/17 07:40:38;;;;;;;7.65;5.35;;;;;;;31.61;25.33;101732.19;5029543;28;20116;-44
2023/06/17 07:43:04;;;;;;;7.72;5.57;;;;;;;32.46;23.90;101730.41;5028999;28;20030;-45
2023/06/17 07:45:30;;;;;;;9.35;5.68;;;;;;;33.05;24.44;101727.47;5028802;28;20111;-44
2023/06/17 07:47:56;;;;;;;6.90;6.00;;;;;;;31.81;23.58;101737.25;5028829;28;20531;-47
2023/06/17 07:50:21;;;;;;;7.22;5.95;;;;;;;32.80;22.21;101731.81;5029393;28;20120;-44
2023/06/17 07:52:47;;;;;;;8.77;6.35;;;;;;;32.84;22.64;101730.63;5029340;28;20136;-50
2023/06/17 07:55:12;;;;;;;9.90;5.30;;;;;;;33.15;23.26;101726.72;5028395;28;23624;-46
2023/06/17 07:57:37;;;;;;;10.18;5.80;;;;;;;32.99;22.17;101728.75;5029444;28;20495;-47
2023/06/17 08:00:10;;;;;;;7.63;5.75;;;;;;;30.84;24.30;101726.88;5028690;28;20120;-47
2023/06/17 08:02:35;;;;;;;6.97;6.00;;;;;;;31.72;24.14;101733.28;5029337;28;20037;-47
2023/06/17 08:05:01;;;;;;;9.15;5.60;;;;;;;31.61;24.91;101732.19;5028051;28;20052;-50
2023/06/17 08:07:27;;;;;;;9.88;6.90;;;;;;;32.44;23.80;101729.66;5029162;28;20068;-45
2023/06/17 08:09:52;;;;;;;7.70;6.57;;;;;;;31.19;25.64;101733.78;5028994;28;20083;-47
2023/06/17 08:12:17;;;;;;;8.35;6.13;;;;;;;31.10;25.48;101733.47;5028645;28;20044;-47
2023/06/17 08:14:43;;;;;;;14.15;4.90;;;;;;;32.60;23.04;101732.22;5029128;28;20029;-47
2023/06/17 08:17:08;;;;;;;6.28;5.38;;;;;;;32.87;22.02;101726.88;5028149;28;20038;-47
2023/06/17 08:19:35;;;;;;;9.77;5.75;;;;;;;31.57;23.27;101736.91;5029057;28;20642;-45
2023/06/17 08:22:00;;;;;;;6.88;5.38;;;;;;;30.34;25.62;101730.59;5028557;28;20511;-46
2023/06/17 08:24:26;;;;;;;9.60;5.63;;;;;;;30.12;25.73;101732.72;5029088;28;20040;-47
2023/06/17 08:26:53;;;;;;;6.43;5.30;;;;;;;31.29;23.71;101740.34;5028752;28;20380;-49
2023/06/17 08:29:19;;;;;;;8.00;4.88;;;;;;;30.01;24.50;101729.75;5028687;28;20029;-46
2023/06/17 08:31:47;;;;;;;6.25;4.25;;;;;;;32.36;21.85;101728.41;5030809;28;20029;-47
2023/06/17 08:34:13;;;;;;;6.72;4.93;;;;;;;31.07;23.92;101733.66;5032185;28;20033;-47
2023/06/17 08:36:42;;;;;;;7.75;4.93;;;;;;;31.65;22.93;101731.94;5031956;28;20041;-49
2023/06/17 08:39:10;;;;;;;8.20;5.45;;;;;;;29.63;26.01;101732.63;5032049;28;20107;-47
2023/06/17 08:41:41;;;;;;;9.02;5.50;;;;;;;28.73;27.89;101740.78;5032525;28;20037;-48
2023/06/17 08:44:10;;;;;;;7.13;5.40;;;;;;;29.54;26.42;101727.72;5032036;28;20467;-48
2023/06/17 08:46:35;;;;;;;5.78;5.10;;;;;;;29.19;28.08;101731.34;5032359;28;20034;-46
2023/06/17 08:49:04;;;;;;;11.27;5.32;;;;;;;27.63;29.43;101737.78;5031820;28;20033;-47
2023/06/17 08:51:30;;;;;;;8.82;5.68;;;;;;;28.07;29.66;101724.19;5032495;28;20057;-47
2023/06/17 08:53:57;;;;;;;6.63;5.57;;;;;;;28.69;28.77;101726.63;5031786;28;20043;-47
2023/06/17 08:56:22;;;;;;;6.90;5.05;;;;;;;29.13;28.00;101727.16;5031766;28;20381;-46
2023/06/17 08:58:49;;;;;;;5.93;4.93;;;;;;;29.38;26.44;101721.44;5032166;28;20048;-48
2023/06/17 09:01:16;;;;;;;6.10;4.90;;;;;;;29.39;26.14;101725.84;5031879;28;20032;-47
2023/06/17 09:03:43;;;;;;;6.88;4.80;;;;;;;29.59;25.17;101722.09;5032132;28;20128;-47
2023/06/17 09:06:34;;;;;;;7.65;4.88;;;;;;;29.47;26.65;101720.94;5030854;28;20048;-48
2023/06/17 09:08:59;;;;;;;8.00;5.30;;;;;;;29.23;26.83;101717.66;5027560;28;20026;-48
2023/06/17 09:11:30;;;;;;;7.63;4.90;;;;;;;28.97;27.14;101718.97;5030685;28;20034;-48
2023/06/17 09:13:57;;;;;;;7.53;5.00;;;;;;;28.69;26.34;101713.19;5031425;28;20029;-44
2023/06/17 09:16:28;;;;;;;12.25;4.70;;;;;;;28.57;27.15;101717.34;5031318;28;20040;-47
2023/06/17 09:18:58;;;;;;;8.10;4.60;;;;;;;28.63;25.49;101710.81;5031546;28;20042;-46
2023/06/17 09:21:25;;;;;;;7.70;4.75;;;;;;;28.67;26.37;101714.25;5031949;28;20033;-45
2023/06/17 09:23:57;;;;;;;9.88;5.07;;;;;;;29.48;25.90;101714.63;5030090;28;20491;-46
2023/06/17 09:26:31;;;;;;;7.43;4.67;;;;;;;29.16;27.10;101718.03;5030672;28;20164;-47
2023/06/17 09:29:03;;;;;;;6.40;4.30;;;;;;;28.57;25.42;101712.00;5029883;28;20299;-47
2023/06/17 09:31:30;;;;;;;6.30;4.80;;;;;;;28.54;26.51;101722.00;5031580;28;20021;-48
2023/06/17 09:33:58;;;;;;;7.85;4.88;;;;;;;28.81;25.47;101704.59;5031057;28;20083;-48
2023/06/17 09:36:25;;;;;;;8.32;4.60;;;;;;;29.20;25.11;101708.91;5030945;28;20033;-47
2023/06/17 09:38:52;;;;;;;6.25;4.70;;;;;;;28.77;25.60;101708.38;5031524;28;20025;-44
2023/06/17 09:41:20;;;;;;;12.60;4.72;;;;;;;28.98;24.08;101701.06;5029798;28;20025;-45
2023/06/17 09:43:53;;;;;;;9.00;4.35;;;;;;;28.85;24.56;101706.16;5030699;28;20496;-45
2023/06/17 09:46:29;;;;;;;9.85;4.55;;;;;;;28.73;24.74;101709.41;5030546;28;20530;-43
2023/06/17 09:48:55;;;;;;;10.45;4.60;;;;;;;28.33;25.93;101696.19;5030830;28;20430;-47
2023/06/17 09:51:23;;;;;;;8.15;4.50;;;;;;;28.81;24.83;101698.34;5031171;28;20026;-49
2023/06/17 09:53:50;;;;;;;6.22;4.53;;;;;;;28.94;24.80;101700.34;5031029;28;20033;-45
2023/06/17 09:56:17;;;;;;;5.80;4.35;;;;;;;28.92;24.62;101693.31;5030494;28;20033;-49
2023/06/17 09:58:44;;;;;;;8.90;4.47;;;;;;;29.44;24.22;101700.47;5031267;28;20034;-46
2023/06/17 10:01:11;;;;;;;7.00;4.50;;;;;;;29.40;24.47;101696.19;5030899;28;20036;-45
2023/06/17 10:03:37;;;;;;;5.90;4.22;;;;;;;29.74;24.26;101705.19;5031194;28;20029;-45
2023/06/17 10:06:06;;;;;;;9.10;4.30;;;;;;;29.77;23.81;101703.19;5030204;28;20041;-44
2023/06/17 10:08:35;;;;;;;5.60;4.40;;;;;;;29.73;23.83;101698.94;5031108;28;20063;-47
2023/06/17 10:11:01;;;;;;;8.63;4.60;;;;;;;29.42;23.42;101702.38;5029182;28;20502;-45
2023/06/17 10:13:30;;;;;;;8.07;4.80;;;;;;;29.33;24.01;101700.19;5031059;28;20076;-46
2023/06/17 10:15:57;;;;;;;7.32;4.55;;;;;;;28.76;25.06;101697.72;5029818;28;20030;-43
2023/06/17 10:18:24;;;;;;;6.85;4.60;;;;;;;29.39;23.84;101697.19;5030934;28;20139;-46
2023/06/17 10:20:51;;;;;;;5.47;4.40;;;;;;;29.42;23.36;101691.63;5030986;28;20037;-45
2023/06/17 10:23:19;;;;;;;16.15;4.80;;;;;;;29.14;25.03;101693.97;5030245;28;20038;-43
2023/06/17 10:25:45;;;;;;;13.52;5.28;;;;;;;28.66;24.29;101697.28;5030168;28;20030;-45
2023/06/17 10:28:10;;;;;;;8.43;4.68;;;;;;;28.82;24.29;101700.97;5030335;28;20037;-45
2023/06/17 10:30:37;;;;;;;10.00;4.45;;;;;;;29.07;24.37;101702.41;5030296;28;20504;-44
2023/06/17 10:33:03;;;;;;;12.20;4.93;;;;;;;28.60;23.82;101697.56;5030239;28;20037;-44
2023/06/17 10:35:38;;;;;;;6.13;4.40;;;;;;;28.87;24.13;101690.00;5029976;28;20034;-46
2023/06/17 10:38:04;;;;;;;6.85;4.47;;;;;;;29.49;23.12;101688.63;5030690;28;20477;-43
2023/06/17 10:40:36;;;;;;;7.70;4.40;;;;;;;29.42;23.31;101686.25;5039646;23;20054;-51
2023/06/17 10:43:01;;;;;;;6.70;4.68;;;;;;;29.71;24.74;101670.38;5010158;28;20061;-43
2023/06/17 10:45:45;;;;;;;8.18;4.78;;;;;;;29.75;22.87;101674.69;5010014;28;20116;-48
2023/06/17 10:48:25;;;;;;;5.45;4.30;;;;;;;30.23;22.17;101665.75;5010049;28;20062;-50
2023/06/17 10:50:53;;;;;;;6.07;4.55;;;;;;;29.70;22.70;101664.16;5010712;28;20034;-45
2023/06/17 10:53:25;;;;;;;6.72;4.55;;;;;;;29.55;22.75;101664.13;5010230;28;20033;-49
2023/06/17 10:55:50;;;;;;;7.15;4.57;;;;;;;29.14;23.49;101671.63;5010741;28;20412;-49
2023/06/17 10:58:15;;;;;;;7.35;4.18;;;;;;;29.27;23.54;101664.69;5010476;28;20049;-48
2023/06/17 11:00:41;;;;;;;8.45;4.57;;;;;;;29.44;22.70;101657.50;5010512;28;20068;-47
2023/06/17 11:03:08;;;;;;;5.88;4.40;;;;;;;29.90;23.70;101652.31;5009608;28;20045;-49
2023/06/17 11:05:38;;;;;;;9.05;4.70;;;;;;;30.06;22.85;101655.06;5009571;28;20037;-48
2023/06/17 11:08:05;;;;;;;6.68;4.65;;;;;;;29.89;23.33;101650.56;4991813;28;20092;-48
2023/06/17 11:10:31;;;;;;;8.10;4.65;;;;;;;30.09;22.87;101646.81;5009925;28;20400;-47
2023/06/17 11:12:57;;;;;;;7.07;4.60;;;;;;;29.95;22.55;101647.59;5009851;28;20038;-48
2023/06/17 11:15:22;;;;;;;7.85;4.50;;;;;;;30.06;22.99;101647.00;5010688;28;20447;-48
2023/06/17 11:17:58;;;;;;;9.00;4.40;;;;;;;30.56;22.70;101646.84;5010940;28;20044;-52